This is the latest recevied weather packets stored in our database for station/object W4MSI. If no packets are shown the sender has not sent any weather packets the latest 1 day(s).
| Time | Temp. | Humidity | Pressure | Rain* | Wind** | Luminosity | Snow |
|---|---|---|---|---|---|---|---|
| 1778097978 | 15° C | 70% | 1014.1 hPa | 0 mm | - | 62 W/m² | - |
| 1778095553 | 15° C | 73% | 1013.8 hPa | 0 mm | - | 91 W/m² | - |
| 1778094036 | 15.56° C | 71% | 1013.5 hPa | 0 mm | - | 161 W/m² | - |
| 1778093733 | 15.56° C | 70% | 1013.4 hPa | 0 mm | - | 205 W/m² | - |
| 1778092520 | 15.56° C | 68% | 1014.3 hPa | 0 mm | - | 221 W/m² | - |
| 1778092217 | 15.56° C | 66% | 1013.9 hPa | 0 mm | - | 313 W/m² | - |
| 1778091611 | 15.56° C | 68% | 1013.9 hPa | 0 mm | - | 431 W/m² | - |
| 1778091309 | 16.67° C | 64% | 1013.5 hPa | 0 mm | - | 482 W/m² | - |
| 1778091006 | 16.11° C | 72% | 1013.5 hPa | 0 mm | - | 444 W/m² | - |
| 1778090399 | 16.11° C | 67% | 1013 hPa | 0 mm | - | 411 W/m² | - |
| 1778088884 | 15.56° C | 72% | 1012.8 hPa | 0 mm | - | 574 W/m² | - |
| 1778088278 | 16.11° C | 70% | 1012.9 hPa | 0 mm | - | 617 W/m² | - |
| 1778087672 | 15° C | 71% | 1012.7 hPa | 0 mm | - | 765 W/m² | - |
| 1778087370 | 15.56° C | 69% | 1012.9 hPa | 0 mm | - | 704 W/m² | - |
| 1778087066 | 15° C | 72% | 1013.2 hPa | 0 mm | - | 660 W/m² | - |
| 1778086463 | 14.44° C | 72% | 1013.5 hPa | 0 mm | - | 580 W/m² | - |
| 1778084949 | 13.89° C | 73% | 1013.9 hPa | 0 mm | - | 446 W/m² | - |
| 1778083436 | 13.33° C | 80% | 1014 hPa | 0 mm | - | 351 W/m² | - |
| 1778080498 | 11.67° C | 84% | 1013 hPa | 0 mm | - | 554 W/m² | - |
| 1778080195 | 11.67° C | 86% | 1012.7 hPa | 0 mm | - | 654 W/m² | - |
| 1778078377 | 10.56° C | 98% | 1012.5 hPa | 0 mm | - | 268 W/m² | - |
| 1778077772 | 10° C | 98% | 1012.5 hPa | 0 mm | - | 206 W/m² | - |
| 1778076865 | 10° C | 98% | 1012.7 hPa | 0 mm | - | 67 W/m² | - |
| 1778075654 | 10° C | 98% | 1012.4 hPa | 0 mm | - | 49 W/m² | - |
| 1778074440 | 10° C | 98% | 1011.9 hPa | 0 mm | - | 24 W/m² | - |
* Rain latest hour (hover to see other rain measurements)
** Current wind speed in m/s (hover to see current wind gust speed)